sensor_id;sensor_type;location;lat;lon;timestamp;P1;durP1;ratioP1;P2;durP2;ratioP2
69463;SDS011;56665;41.106;16.688;2023-04-24T00:02:26;8.55;;;5.68;;
69463;SDS011;56665;41.106;16.688;2023-04-24T00:05:30;7.25;;;5.10;;
69463;SDS011;56665;41.106;16.688;2023-04-24T00:08:35;8.47;;;5.13;;
69463;SDS011;56665;41.106;16.688;2023-04-24T00:11:39;7.20;;;5.28;;
69463;SDS011;56665;41.106;16.688;2023-04-24T00:14:42;9.65;;;5.85;;
69463;SDS011;56665;41.106;16.688;2023-04-24T00:17:46;9.38;;;5.75;;
69463;SDS011;56665;41.106;16.688;2023-04-24T00:20:50;11.13;;;5.50;;
69463;SDS011;56665;41.106;16.688;2023-04-24T00:23:55;9.93;;;6.10;;
69463;SDS011;56665;41.106;16.688;2023-04-24T00:26:58;11.00;;;5.97;;
69463;SDS011;56665;41.106;16.688;2023-04-24T00:30:04;9.18;;;5.75;;
69463;SDS011;56665;41.106;16.688;2023-04-24T00:33:08;8.18;;;5.55;;
69463;SDS011;56665;41.106;16.688;2023-04-24T00:36:11;8.65;;;5.78;;
69463;SDS011;56665;41.106;16.688;2023-04-24T00:39:16;10.17;;;4.77;;
69463;SDS011;56665;41.106;16.688;2023-04-24T00:42:20;7.80;;;4.90;;
69463;SDS011;56665;41.106;16.688;2023-04-24T00:45:25;9.07;;;4.72;;
69463;SDS011;56665;41.106;16.688;2023-04-24T00:48:29;6.97;;;4.65;;
69463;SDS011;56665;41.106;16.688;2023-04-24T00:51:34;7.25;;;4.38;;
69463;SDS011;56665;41.106;16.688;2023-04-24T00:54:39;8.00;;;4.67;;
69463;SDS011;56665;41.106;16.688;2023-04-24T00:57:43;10.90;;;4.60;;
69463;SDS011;56665;41.106;16.688;2023-04-24T01:00:49;8.50;;;4.90;;
69463;SDS011;56665;41.106;16.688;2023-04-24T01:03:56;8.20;;;4.68;;
69463;SDS011;56665;41.106;16.688;2023-04-24T01:07:01;8.48;;;4.32;;
69463;SDS011;56665;41.106;16.688;2023-04-24T01:10:05;6.13;;;4.67;;
69463;SDS011;56665;41.106;16.688;2023-04-24T01:13:10;7.30;;;4.00;;
69463;SDS011;56665;41.106;16.688;2023-04-24T01:16:14;7.05;;;4.68;;
69463;SDS011;56665;41.106;16.688;2023-04-24T01:19:20;7.22;;;4.85;;
69463;SDS011;56665;41.106;16.688;2023-04-24T01:22:24;7.18;;;4.93;;
69463;SDS011;56665;41.106;16.688;2023-04-24T01:25:28;8.40;;;5.37;;
69463;SDS011;56665;41.106;16.688;2023-04-24T01:28:34;7.28;;;5.50;;
69463;SDS011;56665;41.106;16.688;2023-04-24T01:31:38;7.50;;;5.60;;
69463;SDS011;56665;41.106;16.688;2023-04-24T01:34:43;8.63;;;6.20;;
69463;SDS011;56665;41.106;16.688;2023-04-24T01:37:48;7.85;;;5.38;;
69463;SDS011;56665;41.106;16.688;2023-04-24T01:40:53;8.37;;;5.20;;
69463;SDS011;56665;41.106;16.688;2023-04-24T01:43:57;7.22;;;5.20;;
69463;SDS011;56665;41.106;16.688;2023-04-24T01:47:02;9.05;;;5.68;;
69463;SDS011;56665;41.106;16.688;2023-04-24T01:50:09;7.75;;;5.32;;
69463;SDS011;56665;41.106;16.688;2023-04-24T01:53:13;8.07;;;5.30;;
69463;SDS011;56665;41.106;16.688;2023-04-24T01:56:17;7.67;;;4.97;;
69463;SDS011;56665;41.106;16.688;2023-04-24T01:59:21;7.00;;;4.75;;
69463;SDS011;56665;41.106;16.688;2023-04-24T02:02:26;7.97;;;5.03;;
69463;SDS011;56665;41.106;16.688;2023-04-24T02:05:34;8.27;;;5.13;;
69463;SDS011;56665;41.106;16.688;2023-04-24T02:08:41;6.90;;;5.00;;
69463;SDS011;56665;41.106;16.688;2023-04-24T02:11:45;10.13;;;5.20;;
69463;SDS011;56665;41.106;16.688;2023-04-24T02:14:49;8.05;;;4.80;;
69463;SDS011;56665;41.106;16.688;2023-04-24T02:17:53;10.02;;;6.03;;
69463;SDS011;56665;41.106;16.688;2023-04-24T02:20:56;8.68;;;5.38;;
69463;SDS011;56665;41.106;16.688;2023-04-24T02:24:00;7.80;;;5.30;;
69463;SDS011;56665;41.106;16.688;2023-04-24T02:27:04;7.37;;;4.77;;
69463;SDS011;56665;41.106;16.688;2023-04-24T02:30:08;7.35;;;4.95;;
69463;SDS011;56665;41.106;16.688;2023-04-24T02:33:12;8.23;;;4.75;;
69463;SDS011;56665;41.106;16.688;2023-04-24T02:36:17;7.63;;;4.55;;
69463;SDS011;56665;41.106;16.688;2023-04-24T02:39:21;6.93;;;4.60;;
69463;SDS011;56665;41.106;16.688;2023-04-24T02:42:25;6.50;;;4.17;;
69463;SDS011;56665;41.106;16.688;2023-04-24T02:45:28;6.10;;;4.18;;
69463;SDS011;56665;41.106;16.688;2023-04-24T02:48:32;7.15;;;4.75;;
69463;SDS011;56665;41.106;16.688;2023-04-24T02:51:37;6.50;;;4.30;;
69463;SDS011;56665;41.106;16.688;2023-04-24T02:54:44;7.05;;;5.10;;
69463;SDS011;56665;41.106;16.688;2023-04-24T02:57:49;6.50;;;4.17;;
69463;SDS011;56665;41.106;16.688;2023-04-24T03:00:53;8.18;;;4.18;;
69463;SDS011;56665;41.106;16.688;2023-04-24T03:03:58;6.85;;;4.63;;
69463;SDS011;56665;41.106;16.688;2023-04-24T03:07:03;6.28;;;4.75;;
69463;SDS011;56665;41.106;16.688;2023-04-24T03:10:08;7.78;;;4.60;;
69463;SDS011;56665;41.106;16.688;2023-04-24T03:13:12;7.07;;;4.40;;
69463;SDS011;56665;41.106;16.688;2023-04-24T03:16:16;7.00;;;4.40;;
69463;SDS011;56665;41.106;16.688;2023-04-24T03:19:20;5.97;;;4.00;;
69463;SDS011;56665;41.106;16.688;2023-04-24T03:22:35;5.88;;;3.90;;
69463;SDS011;56665;41.106;16.688;2023-04-24T03:25:43;5.55;;;3.47;;
69463;SDS011;56665;41.106;16.688;2023-04-24T03:28:49;6.27;;;3.63;;
69463;SDS011;56665;41.106;16.688;2023-04-24T03:31:54;6.07;;;3.25;;
69463;SDS011;56665;41.106;16.688;2023-04-24T03:34:58;5.43;;;3.40;;
69463;SDS011;56665;41.106;16.688;2023-04-24T03:38:02;7.38;;;3.50;;
69463;SDS011;56665;41.106;16.688;2023-04-24T03:41:19;5.88;;;3.70;;
69463;SDS011;56665;41.106;16.688;2023-04-24T03:44:27;5.93;;;3.77;;
69463;SDS011;56665;41.106;16.688;2023-04-24T03:47:31;5.80;;;3.45;;
69463;SDS011;56665;41.106;16.688;2023-04-24T03:50:37;5.53;;;3.92;;
69463;SDS011;56665;41.106;16.688;2023-04-24T03:53:43;7.45;;;4.35;;
69463;SDS011;56665;41.106;16.688;2023-04-24T03:56:49;6.90;;;4.13;;
69463;SDS011;56665;41.106;16.688;2023-04-24T03:59:53;8.03;;;4.20;;
69463;SDS011;56665;41.106;16.688;2023-04-24T04:02:58;6.65;;;3.90;;
69463;SDS011;56665;41.106;16.688;2023-04-24T04:06:02;7.28;;;4.55;;
69463;SDS011;56665;41.106;16.688;2023-04-24T04:09:07;7.93;;;4.82;;
69463;SDS011;56665;41.106;16.688;2023-04-24T04:12:13;8.07;;;4.70;;
69463;SDS011;56665;41.106;16.688;2023-04-24T04:15:17;9.70;;;5.40;;
69463;SDS011;56665;41.106;16.688;2023-04-24T04:18:21;11.23;;;5.20;;
69463;SDS011;56665;41.106;16.688;2023-04-24T04:21:25;8.20;;;4.60;;
69463;SDS011;56665;41.106;16.688;2023-04-24T04:24:37;9.13;;;5.20;;
69463;SDS011;56665;41.106;16.688;2023-04-24T04:27:44;7.53;;;4.78;;
69463;SDS011;56665;41.106;16.688;2023-04-24T04:30:50;7.40;;;4.40;;
69463;SDS011;56665;41.106;16.688;2023-04-24T04:33:58;7.93;;;4.25;;
69463;SDS011;56665;41.106;16.688;2023-04-24T04:37:02;6.50;;;3.88;;
69463;SDS011;56665;41.106;16.688;2023-04-24T04:40:42;6.15;;;3.63;;
69463;SDS011;56665;41.106;16.688;2023-04-24T04:43:48;7.55;;;3.80;;
69463;SDS011;56665;41.106;16.688;2023-04-24T04:46:54;8.37;;;4.20;;
69463;SDS011;56665;41.106;16.688;2023-04-24T04:50:05;8.30;;;5.63;;
69463;SDS011;56665;41.106;16.688;2023-04-24T04:53:11;11.93;;;7.13;;
69463;SDS011;56665;41.106;16.688;2023-04-24T04:56:16;9.05;;;6.30;;
69463;SDS011;56665;41.106;16.688;2023-04-24T04:59:23;7.80;;;5.20;;
69463;SDS011;56665;41.106;16.688;2023-04-24T05:02:32;7.10;;;4.53;;
69463;SDS011;56665;41.106;16.688;2023-04-24T05:05:36;6.47;;;3.72;;
69463;SDS011;56665;41.106;16.688;2023-04-24T05:08:45;7.57;;;3.80;;
69463;SDS011;56665;41.106;16.688;2023-04-24T05:12:00;7.10;;;3.72;;
69463;SDS011;56665;41.106;16.688;2023-04-24T05:15:07;6.68;;;3.83;;
69463;SDS011;56665;41.106;16.688;2023-04-24T05:18:11;5.80;;;3.63;;
69463;SDS011;56665;41.106;16.688;2023-04-24T05:21:15;8.00;;;3.60;;
69463;SDS011;56665;41.106;16.688;2023-04-24T05:24:22;9.93;;;4.75;;
69463;SDS011;56665;41.106;16.688;2023-04-24T05:27:46;10.07;;;5.15;;
69463;SDS011;56665;41.106;16.688;2023-04-24T05:30:52;9.30;;;4.47;;
69463;SDS011;56665;41.106;16.688;2023-04-24T05:33:57;8.17;;;4.50;;
69463;SDS011;56665;41.106;16.688;2023-04-24T05:37:03;6.72;;;4.30;;
69463;SDS011;56665;41.106;16.688;2023-04-24T05:40:11;6.32;;;4.07;;
69463;SDS011;56665;41.106;16.688;2023-04-24T05:43:15;9.20;;;4.30;;
69463;SDS011;56665;41.106;16.688;2023-04-24T05:46:20;8.90;;;4.55;;
69463;SDS011;56665;41.106;16.688;2023-04-24T05:49:24;7.60;;;4.67;;
69463;SDS011;56665;41.106;16.688;2023-04-24T05:52:28;9.18;;;5.35;;
69463;SDS011;56665;41.106;16.688;2023-04-24T05:55:31;10.20;;;5.93;;
69463;SDS011;56665;41.106;16.688;2023-04-24T05:58:35;9.98;;;5.78;;
69463;SDS011;56665;41.106;16.688;2023-04-24T06:01:41;10.35;;;5.90;;
69463;SDS011;56665;41.106;16.688;2023-04-24T06:04:51;10.23;;;6.17;;
69463;SDS011;56665;41.106;16.688;2023-04-24T06:07:55;11.70;;;6.60;;
69463;SDS011;56665;41.106;16.688;2023-04-24T06:11:02;9.48;;;5.95;;
69463;SDS011;56665;41.106;16.688;2023-04-24T06:14:06;10.38;;;6.97;;
69463;SDS011;56665;41.106;16.688;2023-04-24T06:17:16;14.20;;;7.78;;
69463;SDS011;56665;41.106;16.688;2023-04-24T06:20:20;15.63;;;9.17;;
69463;SDS011;56665;41.106;16.688;2023-04-24T06:23:24;13.52;;;9.68;;
69463;SDS011;56665;41.106;16.688;2023-04-24T06:26:28;13.30;;;7.82;;
69463;SDS011;56665;41.106;16.688;2023-04-24T06:29:33;13.63;;;8.23;;
69463;SDS011;56665;41.106;16.688;2023-04-24T06:32:37;13.68;;;8.75;;
69463;SDS011;56665;41.106;16.688;2023-04-24T06:35:41;14.23;;;7.80;;
69463;SDS011;56665;41.106;16.688;2023-04-24T06:38:44;10.55;;;6.75;;
69463;SDS011;56665;41.106;16.688;2023-04-24T06:41:48;10.05;;;6.45;;
69463;SDS011;56665;41.106;16.688;2023-04-24T06:44:57;12.40;;;6.57;;
69463;SDS011;56665;41.106;16.688;2023-04-24T06:48:00;11.18;;;6.63;;
69463;SDS011;56665;41.106;16.688;2023-04-24T06:51:04;9.83;;;7.03;;
69463;SDS011;56665;41.106;16.688;2023-04-24T06:54:08;12.13;;;6.72;;
69463;SDS011;56665;41.106;16.688;2023-04-24T06:57:13;10.57;;;6.50;;
69463;SDS011;56665;41.106;16.688;2023-04-24T07:00:17;11.05;;;6.40;;
69463;SDS011;56665;41.106;16.688;2023-04-24T07:03:21;10.82;;;6.13;;
69463;SDS011;56665;41.106;16.688;2023-04-24T07:06:25;10.67;;;6.43;;
69463;SDS011;56665;41.106;16.688;2023-04-24T07:09:28;10.27;;;6.93;;
69463;SDS011;56665;41.106;16.688;2023-04-24T07:12:33;15.35;;;8.13;;
69463;SDS011;56665;41.106;16.688;2023-04-24T07:15:39;22.23;;;9.82;;
69463;SDS011;56665;41.106;16.688;2023-04-24T07:18:44;17.58;;;7.80;;
69463;SDS011;56665;41.106;16.688;2023-04-24T07:21:48;18.50;;;8.17;;
69463;SDS011;56665;41.106;16.688;2023-04-24T07:24:51;18.40;;;6.57;;
69463;SDS011;56665;41.106;16.688;2023-04-24T07:27:55;10.27;;;6.18;;
69463;SDS011;56665;41.106;16.688;2023-04-24T07:30:59;7.53;;;4.93;;
69463;SDS011;56665;41.106;16.688;2023-04-24T07:34:03;6.38;;;4.18;;
69463;SDS011;56665;41.106;16.688;2023-04-24T07:37:06;8.20;;;4.17;;
69463;SDS011;56665;41.106;16.688;2023-04-24T07:40:10;6.25;;;3.78;;
69463;SDS011;56665;41.106;16.688;2023-04-24T07:43:16;7.63;;;4.57;;
69463;SDS011;56665;41.106;16.688;2023-04-24T07:46:21;6.38;;;4.07;;
69463;SDS011;56665;41.106;16.688;2023-04-24T07:49:26;5.68;;;4.20;;
69463;SDS011;56665;41.106;16.688;2023-04-24T07:52:31;8.80;;;4.07;;
69463;SDS011;56665;41.106;16.688;2023-04-24T07:55:34;5.53;;;3.20;;
69463;SDS011;56665;41.106;16.688;2023-04-24T07:58:38;5.78;;;3.50;;
69463;SDS011;56665;41.106;16.688;2023-04-24T08:01:42;5.53;;;3.40;;
69463;SDS011;56665;41.106;16.688;2023-04-24T08:04:46;7.43;;;3.58;;
69463;SDS011;56665;41.106;16.688;2023-04-24T08:07:50;6.60;;;3.27;;
69463;SDS011;56665;41.106;16.688;2023-04-24T08:10:55;5.32;;;3.30;;
69463;SDS011;56665;41.106;16.688;2023-04-24T08:13:58;7.38;;;4.50;;
69463;SDS011;56665;41.106;16.688;2023-04-24T08:17:02;9.15;;;5.55;;
69463;SDS011;56665;41.106;16.688;2023-04-24T08:20:07;9.13;;;5.53;;
69463;SDS011;56665;41.106;16.688;2023-04-24T08:23:17;9.13;;;5.70;;
69463;SDS011;56665;41.106;16.688;2023-04-24T08:26:22;7.22;;;4.82;;
69463;SDS011;56665;41.106;16.688;2023-04-24T08:29:26;9.48;;;5.57;;
69463;SDS011;56665;41.106;16.688;2023-04-24T08:32:30;9.48;;;5.75;;
69463;SDS011;56665;41.106;16.688;2023-04-24T08:35:34;8.48;;;5.60;;
69463;SDS011;56665;41.106;16.688;2023-04-24T08:38:39;8.03;;;4.70;;
69463;SDS011;56665;41.106;16.688;2023-04-24T08:41:43;7.35;;;4.47;;
69463;SDS011;56665;41.106;16.688;2023-04-24T08:44:49;6.47;;;4.25;;
69463;SDS011;56665;41.106;16.688;2023-04-24T08:47:54;8.07;;;3.70;;
69463;SDS011;56665;41.106;16.688;2023-04-24T08:50:58;7.25;;;4.07;;
69463;SDS011;56665;41.106;16.688;2023-04-24T08:54:03;7.03;;;3.77;;
69463;SDS011;56665;41.106;16.688;2023-04-24T08:57:08;6.80;;;3.97;;
69463;SDS011;56665;41.106;16.688;2023-04-24T09:00:15;6.72;;;3.60;;
69463;SDS011;56665;41.106;16.688;2023-04-24T09:03:21;7.65;;;3.90;;
69463;SDS011;56665;41.106;16.688;2023-04-24T09:06:25;6.22;;;3.55;;
69463;SDS011;56665;41.106;16.688;2023-04-24T09:09:31;9.37;;;4.30;;
69463;SDS011;56665;41.106;16.688;2023-04-24T09:12:36;8.25;;;4.60;;
69463;SDS011;56665;41.106;16.688;2023-04-24T09:15:40;8.80;;;4.75;;
69463;SDS011;56665;41.106;16.688;2023-04-24T09:18:44;9.23;;;5.30;;
69463;SDS011;56665;41.106;16.688;2023-04-24T09:21:48;11.10;;;6.00;;
69463;SDS011;56665;41.106;16.688;2023-04-24T09:25:03;8.83;;;5.07;;
69463;SDS011;56665;41.106;16.688;2023-04-24T09:28:09;10.73;;;5.22;;
69463;SDS011;56665;41.106;16.688;2023-04-24T09:31:14;9.10;;;5.40;;
69463;SDS011;56665;41.106;16.688;2023-04-24T09:34:23;8.48;;;4.60;;
69463;SDS011;56665;41.106;16.688;2023-04-24T09:37:34;10.02;;;4.38;;
69463;SDS011;56665;41.106;16.688;2023-04-24T09:40:39;7.83;;;4.10;;
69463;SDS011;56665;41.106;16.688;2023-04-24T09:43:43;7.72;;;3.85;;
69463;SDS011;56665;41.106;16.688;2023-04-24T09:46:50;8.13;;;4.18;;
69463;SDS011;56665;41.106;16.688;2023-04-24T09:50:08;10.07;;;4.60;;
69463;SDS011;56665;41.106;16.688;2023-04-24T09:53:16;8.88;;;5.00;;
69463;SDS011;56665;41.106;16.688;2023-04-24T09:56:28;6.00;;;4.50;;
69463;SDS011;56665;41.106;16.688;2023-04-24T09:59:41;7.63;;;4.28;;
69463;SDS011;56665;41.106;16.688;2023-04-24T10:02:50;7.63;;;5.07;;
69463;SDS011;56665;41.106;16.688;2023-04-24T10:06:03;7.85;;;4.03;;
69463;SDS011;56665;41.106;16.688;2023-04-24T10:09:12;6.50;;;4.13;;
69463;SDS011;56665;41.106;16.688;2023-04-24T10:12:16;6.93;;;3.67;;
69463;SDS011;56665;41.106;16.688;2023-04-24T10:15:21;7.20;;;4.55;;
69463;SDS011;56665;41.106;16.688;2023-04-24T10:18:25;7.60;;;4.45;;
69463;SDS011;56665;41.106;16.688;2023-04-24T10:21:30;8.13;;;4.38;;
69463;SDS011;56665;41.106;16.688;2023-04-24T10:24:35;8.60;;;4.57;;
69463;SDS011;56665;41.106;16.688;2023-04-24T10:27:41;10.10;;;5.00;;
69463;SDS011;56665;41.106;16.688;2023-04-24T10:30:46;10.00;;;4.53;;
69463;SDS011;56665;41.106;16.688;2023-04-24T10:33:51;7.47;;;4.40;;
69463;SDS011;56665;41.106;16.688;2023-04-24T10:36:56;9.88;;;4.78;;
69463;SDS011;56665;41.106;16.688;2023-04-24T10:40:01;12.48;;;5.22;;
69463;SDS011;56665;41.106;16.688;2023-04-24T10:43:05;12.90;;;5.27;;
69463;SDS011;56665;41.106;16.688;2023-04-24T10:46:16;12.25;;;4.53;;
69463;SDS011;56665;41.106;16.688;2023-04-24T10:49:30;6.68;;;3.60;;
69463;SDS011;56665;41.106;16.688;2023-04-24T10:52:45;8.35;;;3.67;;
69463;SDS011;56665;41.106;16.688;2023-04-24T10:56:00;8.48;;;3.63;;
69463;SDS011;56665;41.106;16.688;2023-04-24T10:59:09;6.13;;;3.10;;
69463;SDS011;56665;41.106;16.688;2023-04-24T11:02:14;8.07;;;3.20;;
69463;SDS011;56665;41.106;16.688;2023-04-24T11:05:19;7.80;;;3.33;;
69463;SDS011;56665;41.106;16.688;2023-04-24T11:11:34;8.48;;;4.57;;
69463;SDS011;56665;41.106;16.688;2023-04-24T11:17:59;5.82;;;3.08;;
69463;SDS011;56665;41.106;16.688;2023-04-24T11:21:09;11.65;;;3.30;;
69463;SDS011;56665;41.106;16.688;2023-04-24T11:28:04;6.78;;;3.15;;
69463;SDS011;56665;41.106;16.688;2023-04-24T11:38:02;8.18;;;3.13;;
69463;SDS011;56665;41.106;16.688;2023-04-24T11:41:06;7.68;;;2.95;;
69463;SDS011;56665;41.106;16.688;2023-04-24T11:44:12;6.57;;;3.33;;
69463;SDS011;56665;41.106;16.688;2023-04-24T11:47:18;6.03;;;3.00;;
69463;SDS011;56665;41.106;16.688;2023-04-24T11:50:22;9.10;;;3.13;;
69463;SDS011;56665;41.106;16.688;2023-04-24T11:53:30;9.15;;;2.97;;
69463;SDS011;56665;41.106;16.688;2023-04-24T11:56:34;4.78;;;2.70;;
69463;SDS011;56665;41.106;16.688;2023-04-24T11:59:39;9.25;;;3.55;;
69463;SDS011;56665;41.106;16.688;2023-04-24T12:02:44;9.57;;;2.90;;
69463;SDS011;56665;41.106;16.688;2023-04-24T12:05:48;6.78;;;3.60;;
69463;SDS011;56665;41.106;16.688;2023-04-24T12:08:52;6.20;;;2.70;;
69463;SDS011;56665;41.106;16.688;2023-04-24T12:11:58;7.82;;;3.00;;
69463;SDS011;56665;41.106;16.688;2023-04-24T12:15:06;5.70;;;2.95;;
69463;SDS011;56665;41.106;16.688;2023-04-24T12:18:11;7.37;;;3.00;;
69463;SDS011;56665;41.106;16.688;2023-04-24T12:21:17;6.75;;;3.33;;
69463;SDS011;56665;41.106;16.688;2023-04-24T12:24:24;8.52;;;3.63;;
69463;SDS011;56665;41.106;16.688;2023-04-24T12:27:29;7.88;;;3.60;;
69463;SDS011;56665;41.106;16.688;2023-04-24T12:30:42;6.97;;;3.45;;
69463;SDS011;56665;41.106;16.688;2023-04-24T12:33:47;8.63;;;4.10;;
69463;SDS011;56665;41.106;16.688;2023-04-24T12:36:51;5.82;;;3.38;;
69463;SDS011;56665;41.106;16.688;2023-04-24T12:40:03;7.53;;;3.20;;
69463;SDS011;56665;41.106;16.688;2023-04-24T12:43:15;6.57;;;3.00;;
69463;SDS011;56665;41.106;16.688;2023-04-24T12:46:23;7.20;;;3.00;;
69463;SDS011;56665;41.106;16.688;2023-04-24T12:49:27;5.50;;;3.30;;
69463;SDS011;56665;41.106;16.688;2023-04-24T12:52:31;5.55;;;3.15;;
69463;SDS011;56665;41.106;16.688;2023-04-24T12:55:35;4.78;;;2.95;;
69463;SDS011;56665;41.106;16.688;2023-04-24T12:58:40;7.32;;;4.00;;
69463;SDS011;56665;41.106;16.688;2023-04-24T13:01:44;6.05;;;3.75;;
69463;SDS011;56665;41.106;16.688;2023-04-24T13:04:51;8.03;;;3.60;;
69463;SDS011;56665;41.106;16.688;2023-04-24T13:07:56;5.70;;;3.38;;
69463;SDS011;56665;41.106;16.688;2023-04-24T13:11:00;6.68;;;3.75;;
69463;SDS011;56665;41.106;16.688;2023-04-24T13:14:04;8.20;;;4.20;;
69463;SDS011;56665;41.106;16.688;2023-04-24T13:17:08;8.45;;;4.25;;
69463;SDS011;56665;41.106;16.688;2023-04-24T13:20:13;6.27;;;3.80;;
69463;SDS011;56665;41.106;16.688;2023-04-24T13:23:17;7.85;;;3.65;;
69463;SDS011;56665;41.106;16.688;2023-04-24T13:26:20;5.35;;;3.40;;
69463;SDS011;56665;41.106;16.688;2023-04-24T13:29:24;9.23;;;3.35;;
69463;SDS011;56665;41.106;16.688;2023-04-24T13:32:28;6.30;;;3.30;;
69463;SDS011;56665;41.106;16.688;2023-04-24T13:35:33;6.93;;;3.63;;
69463;SDS011;56665;41.106;16.688;2023-04-24T13:38:38;5.35;;;3.60;;
69463;SDS011;56665;41.106;16.688;2023-04-24T13:41:41;6.07;;;3.33;;
69463;SDS011;56665;41.106;16.688;2023-04-24T13:44:45;5.47;;;3.30;;
69463;SDS011;56665;41.106;16.688;2023-04-24T13:47:49;5.70;;;3.47;;
69463;SDS011;56665;41.106;16.688;2023-04-24T13:50:53;8.60;;;3.37;;
69463;SDS011;56665;41.106;16.688;2023-04-24T13:53:57;5.82;;;3.50;;
69463;SDS011;56665;41.106;16.688;2023-04-24T13:57:01;5.80;;;3.40;;
69463;SDS011;56665;41.106;16.688;2023-04-24T14:00:05;4.60;;;2.70;;
69463;SDS011;56665;41.106;16.688;2023-04-24T14:03:10;4.72;;;2.85;;
69463;SDS011;56665;41.106;16.688;2023-04-24T14:06:15;5.63;;;2.80;;
69463;SDS011;56665;41.106;16.688;2023-04-24T14:09:18;4.60;;;2.35;;
69463;SDS011;56665;41.106;16.688;2023-04-24T14:12:22;5.95;;;2.60;;
69463;SDS011;56665;41.106;16.688;2023-04-24T14:15:26;4.97;;;2.10;;
69463;SDS011;56665;41.106;16.688;2023-04-24T14:18:30;4.43;;;2.28;;
69463;SDS011;56665;41.106;16.688;2023-04-24T14:21:35;7.43;;;2.70;;
69463;SDS011;56665;41.106;16.688;2023-04-24T14:24:39;4.40;;;2.15;;
69463;SDS011;56665;41.106;16.688;2023-04-24T14:27:42;3.20;;;2.30;;
69463;SDS011;56665;41.106;16.688;2023-04-24T14:30:46;5.97;;;2.42;;
69463;SDS011;56665;41.106;16.688;2023-04-24T14:33:51;5.00;;;2.33;;
69463;SDS011;56665;41.106;16.688;2023-04-24T14:36:56;3.70;;;1.97;;
69463;SDS011;56665;41.106;16.688;2023-04-24T14:40:00;4.97;;;2.20;;
69463;SDS011;56665;41.106;16.688;2023-04-24T14:43:08;6.63;;;2.40;;
69463;SDS011;56665;41.106;16.688;2023-04-24T14:46:11;3.70;;;2.10;;
69463;SDS011;56665;41.106;16.688;2023-04-24T14:49:16;4.57;;;2.78;;
69463;SDS011;56665;41.106;16.688;2023-04-24T14:52:20;9.23;;;3.57;;
69463;SDS011;56665;41.106;16.688;2023-04-24T14:55:25;7.10;;;3.03;;
69463;SDS011;56665;41.106;16.688;2023-04-24T14:58:29;9.63;;;3.67;;
69463;SDS011;56665;41.106;16.688;2023-04-24T15:01:32;8.77;;;3.65;;
69463;SDS011;56665;41.106;16.688;2023-04-24T15:04:37;8.50;;;4.25;;
69463;SDS011;56665;41.106;16.688;2023-04-24T15:07:41;7.53;;;3.80;;
69463;SDS011;56665;41.106;16.688;2023-04-24T15:10:46;6.72;;;3.53;;
69463;SDS011;56665;41.106;16.688;2023-04-24T15:13:50;8.18;;;4.03;;
69463;SDS011;56665;41.106;16.688;2023-04-24T15:16:55;9.35;;;3.83;;
69463;SDS011;56665;41.106;16.688;2023-04-24T15:19:59;9.82;;;3.72;;
69463;SDS011;56665;41.106;16.688;2023-04-24T15:23:04;8.73;;;4.10;;
69463;SDS011;56665;41.106;16.688;2023-04-24T15:26:13;11.68;;;4.78;;
69463;SDS011;56665;41.106;16.688;2023-04-24T15:29:18;8.40;;;3.63;;
69463;SDS011;56665;41.106;16.688;2023-04-24T15:32:22;10.52;;;4.30;;
69463;SDS011;56665;41.106;16.688;2023-04-24T15:35:27;14.77;;;6.03;;
69463;SDS011;56665;41.106;16.688;2023-04-24T15:38:31;15.27;;;6.07;;
69463;SDS011;56665;41.106;16.688;2023-04-24T15:41:35;18.15;;;7.05;;
69463;SDS011;56665;41.106;16.688;2023-04-24T15:44:39;11.80;;;4.22;;
69463;SDS011;56665;41.106;16.688;2023-04-24T15:47:44;10.15;;;3.80;;
69463;SDS011;56665;41.106;16.688;2023-04-24T15:50:49;12.27;;;4.18;;
69463;SDS011;56665;41.106;16.688;2023-04-24T15:53:53;6.13;;;3.23;;
69463;SDS011;56665;41.106;16.688;2023-04-24T15:56:56;9.45;;;3.42;;
69463;SDS011;56665;41.106;16.688;2023-04-24T16:00:01;11.55;;;3.60;;
69463;SDS011;56665;41.106;16.688;2023-04-24T16:03:15;7.85;;;3.95;;
69463;SDS011;56665;41.106;16.688;2023-04-24T16:06:18;7.63;;;3.80;;
69463;SDS011;56665;41.106;16.688;2023-04-24T16:09:22;9.80;;;4.13;;
69463;SDS011;56665;41.106;16.688;2023-04-24T16:12:26;10.77;;;4.38;;
69463;SDS011;56665;41.106;16.688;2023-04-24T16:15:32;8.73;;;4.50;;
69463;SDS011;56665;41.106;16.688;2023-04-24T16:18:38;10.93;;;4.57;;
69463;SDS011;56665;41.106;16.688;2023-04-24T16:21:42;7.20;;;4.10;;
69463;SDS011;56665;41.106;16.688;2023-04-24T16:24:46;11.03;;;4.00;;
69463;SDS011;56665;41.106;16.688;2023-04-24T16:27:50;12.65;;;4.80;;
69463;SDS011;56665;41.106;16.688;2023-04-24T16:30:54;12.48;;;5.05;;
69463;SDS011;56665;41.106;16.688;2023-04-24T16:33:58;9.90;;;4.70;;
69463;SDS011;56665;41.106;16.688;2023-04-24T16:37:02;9.40;;;4.05;;
69463;SDS011;56665;41.106;16.688;2023-04-24T16:40:08;13.27;;;4.57;;
69463;SDS011;56665;41.106;16.688;2023-04-24T16:43:15;10.60;;;4.43;;
69463;SDS011;56665;41.106;16.688;2023-04-24T16:46:20;9.27;;;3.92;;
69463;SDS011;56665;41.106;16.688;2023-04-24T16:49:24;13.05;;;5.70;;
69463;SDS011;56665;41.106;16.688;2023-04-24T16:52:33;12.43;;;5.53;;
69463;SDS011;56665;41.106;16.688;2023-04-24T16:55:38;14.13;;;5.40;;
69463;SDS011;56665;41.106;16.688;2023-04-24T16:58:42;11.98;;;5.30;;
69463;SDS011;56665;41.106;16.688;2023-04-24T17:01:46;12.93;;;5.20;;
69463;SDS011;56665;41.106;16.688;2023-04-24T17:04:50;12.93;;;5.35;;
69463;SDS011;56665;41.106;16.688;2023-04-24T17:07:55;12.15;;;5.00;;
69463;SDS011;56665;41.106;16.688;2023-04-24T17:10:58;11.37;;;4.40;;
69463;SDS011;56665;41.106;16.688;2023-04-24T17:14:02;13.85;;;5.30;;
69463;SDS011;56665;41.106;16.688;2023-04-24T17:17:07;14.35;;;5.75;;
69463;SDS011;56665;41.106;16.688;2023-04-24T17:20:11;16.73;;;6.25;;
69463;SDS011;56665;41.106;16.688;2023-04-24T17:23:14;10.60;;;5.43;;
69463;SDS011;56665;41.106;16.688;2023-04-24T17:26:18;12.57;;;5.13;;
69463;SDS011;56665;41.106;16.688;2023-04-24T17:29:24;14.60;;;5.18;;
69463;SDS011;56665;41.106;16.688;2023-04-24T17:32:28;13.00;;;5.93;;
69463;SDS011;56665;41.106;16.688;2023-04-24T17:35:32;12.98;;;4.93;;
69463;SDS011;56665;41.106;16.688;2023-04-24T17:38:36;13.02;;;4.60;;
69463;SDS011;56665;41.106;16.688;2023-04-24T17:41:39;8.67;;;4.30;;
69463;SDS011;56665;41.106;16.688;2023-04-24T17:44:43;10.05;;;4.15;;
69463;SDS011;56665;41.106;16.688;2023-04-24T17:47:47;11.95;;;4.28;;
69463;SDS011;56665;41.106;16.688;2023-04-24T17:50:52;9.98;;;4.80;;
69463;SDS011;56665;41.106;16.688;2023-04-24T17:53:56;9.75;;;3.83;;
69463;SDS011;56665;41.106;16.688;2023-04-24T17:57:00;8.03;;;3.10;;
69463;SDS011;56665;41.106;16.688;2023-04-24T18:00:04;6.28;;;2.85;;
69463;SDS011;56665;41.106;16.688;2023-04-24T18:03:09;7.30;;;2.47;;
69463;SDS011;56665;41.106;16.688;2023-04-24T18:06:13;6.55;;;2.55;;
69463;SDS011;56665;41.106;16.688;2023-04-24T18:09:19;6.20;;;2.30;;
69463;SDS011;56665;41.106;16.688;2023-04-24T18:12:23;7.13;;;2.43;;
69463;SDS011;56665;41.106;16.688;2023-04-24T18:15:27;7.68;;;2.00;;
69463;SDS011;56665;41.106;16.688;2023-04-24T18:18:31;5.93;;;2.45;;
69463;SDS011;56665;41.106;16.688;2023-04-24T18:21:35;6.53;;;2.72;;
69463;SDS011;56665;41.106;16.688;2023-04-24T18:24:39;5.45;;;2.60;;
69463;SDS011;56665;41.106;16.688;2023-04-24T18:27:43;7.87;;;2.50;;
69463;SDS011;56665;41.106;16.688;2023-04-24T18:30:47;5.65;;;2.00;;
69463;SDS011;56665;41.106;16.688;2023-04-24T18:33:50;6.03;;;2.40;;